sensor_id;sensor_type;location;lat;lon;timestamp;temperature;humidity
22319;DHT22;11327;52.334;9.506;2023-03-03T00:02:57;1.40;99.90
22319;DHT22;11327;52.334;9.506;2023-03-03T00:06:20;1.40;99.90
22319;DHT22;11327;52.334;9.506;2023-03-03T00:09:41;1.40;99.90
22319;DHT22;11327;52.334;9.506;2023-03-03T00:13:01;1.40;99.90
22319;DHT22;11327;52.334;9.506;2023-03-03T00:16:27;1.40;99.90
22319;DHT22;11327;52.334;9.506;2023-03-03T00:19:47;1.40;99.90
22319;DHT22;11327;52.334;9.506;2023-03-03T00:26:46;1.40;99.90
22319;DHT22;11327;52.334;9.506;2023-03-03T00:30:19;1.40;99.90
22319;DHT22;11327;52.334;9.506;2023-03-03T00:33:52;1.30;99.90
22319;DHT22;11327;52.334;9.506;2023-03-03T00:40:51;1.30;99.90
22319;DHT22;11327;52.334;9.506;2023-03-03T00:47:54;1.20;99.90
22319;DHT22;11327;52.334;9.506;2023-03-03T00:51:30;1.20;99.90
22319;DHT22;11327;52.334;9.506;2023-03-03T00:54:51;1.20;99.90
22319;DHT22;11327;52.334;9.506;2023-03-03T00:58:12;1.10;99.90
22319;DHT22;11327;52.334;9.506;2023-03-03T01:01:33;1.10;99.90
22319;DHT22;11327;52.334;9.506;2023-03-03T01:04:54;1.10;99.90
22319;DHT22;11327;52.334;9.506;2023-03-03T01:08:18;1.00;99.90
22319;DHT22;11327;52.334;9.506;2023-03-03T01:11:39;1.10;99.90
22319;DHT22;11327;52.334;9.506;2023-03-03T01:14:59;1.10;99.90
22319;DHT22;11327;52.334;9.506;2023-03-03T01:18:20;1.10;99.90
22319;DHT22;11327;52.334;9.506;2023-03-03T01:21:41;1.10;99.90
22319;DHT22;11327;52.334;9.506;2023-03-03T01:25:02;1.10;99.90
22319;DHT22;11327;52.334;9.506;2023-03-03T01:28:23;1.10;99.90
22319;DHT22;11327;52.334;9.506;2023-03-03T01:31:43;1.10;99.90
22319;DHT22;11327;52.334;9.506;2023-03-03T01:35:05;1.10;99.90
22319;DHT22;11327;52.334;9.506;2023-03-03T01:38:26;1.10;99.90
22319;DHT22;11327;52.334;9.506;2023-03-03T01:41:47;1.00;99.90
22319;DHT22;11327;52.334;9.506;2023-03-03T01:45:28;0.90;99.90
22319;DHT22;11327;52.334;9.506;2023-03-03T01:48:51;0.80;99.90
22319;DHT22;11327;52.334;9.506;2023-03-03T01:52:30;0.80;99.90
22319;DHT22;11327;52.334;9.506;2023-03-03T01:55:49;0.80;99.90
22319;DHT22;11327;52.334;9.506;2023-03-03T01:59:20;0.80;99.90
22319;DHT22;11327;52.334;9.506;2023-03-03T02:02:43;0.80;99.90
22319;DHT22;11327;52.334;9.506;2023-03-03T02:06:08;0.70;99.90
22319;DHT22;11327;52.334;9.506;2023-03-03T02:09:45;0.70;99.90
22319;DHT22;11327;52.334;9.506;2023-03-03T02:13:05;0.70;99.90
22319;DHT22;11327;52.334;9.506;2023-03-03T02:16:27;0.80;99.90
22319;DHT22;11327;52.334;9.506;2023-03-03T02:20:02;0.70;99.90
22319;DHT22;11327;52.334;9.506;2023-03-03T02:23:32;0.70;99.90
22319;DHT22;11327;52.334;9.506;2023-03-03T02:26:52;0.70;99.90
22319;DHT22;11327;52.334;9.506;2023-03-03T02:30:16;0.70;99.90
22319;DHT22;11327;52.334;9.506;2023-03-03T02:33:38;0.70;99.90
22319;DHT22;11327;52.334;9.506;2023-03-03T02:36:59;0.70;99.90
22319;DHT22;11327;52.334;9.506;2023-03-03T02:40:20;0.70;99.90
22319;DHT22;11327;52.334;9.506;2023-03-03T02:44:01;0.70;99.90
22319;DHT22;11327;52.334;9.506;2023-03-03T02:47:22;0.60;99.90
22319;DHT22;11327;52.334;9.506;2023-03-03T02:50:43;0.70;99.90
22319;DHT22;11327;52.334;9.506;2023-03-03T02:54:05;0.60;99.90
22319;DHT22;11327;52.334;9.506;2023-03-03T02:57:26;0.70;99.90
22319;DHT22;11327;52.334;9.506;2023-03-03T03:00:46;0.70;99.90
22319;DHT22;11327;52.334;9.506;2023-03-03T03:04:12;0.60;99.90
22319;DHT22;11327;52.334;9.506;2023-03-03T03:07:33;0.60;99.90
22319;DHT22;11327;52.334;9.506;2023-03-03T03:10:54;0.70;99.90
22319;DHT22;11327;52.334;9.506;2023-03-03T03:14:16;0.70;99.90
22319;DHT22;11327;52.334;9.506;2023-03-03T03:17:37;0.70;99.90
22319;DHT22;11327;52.334;9.506;2023-03-03T03:21:06;0.70;99.90
22319;DHT22;11327;52.334;9.506;2023-03-03T03:24:27;0.70;99.90
22319;DHT22;11327;52.334;9.506;2023-03-03T03:27:47;0.80;99.90
22319;DHT22;11327;52.334;9.506;2023-03-03T03:31:09;0.80;99.90
22319;DHT22;11327;52.334;9.506;2023-03-03T03:34:29;0.70;99.90
22319;DHT22;11327;52.334;9.506;2023-03-03T03:37:50;0.80;99.90
22319;DHT22;11327;52.334;9.506;2023-03-03T03:41:12;0.80;99.90
22319;DHT22;11327;52.334;9.506;2023-03-03T03:44:33;0.80;99.90
22319;DHT22;11327;52.334;9.506;2023-03-03T03:47:54;0.80;99.90
22319;DHT22;11327;52.334;9.506;2023-03-03T03:51:14;0.80;99.90
22319;DHT22;11327;52.334;9.506;2023-03-03T03:54:35;0.80;99.90
22319;DHT22;11327;52.334;9.506;2023-03-03T03:57:56;0.80;99.90
22319;DHT22;11327;52.334;9.506;2023-03-03T04:01:17;0.80;99.90
22319;DHT22;11327;52.334;9.506;2023-03-03T04:04:37;0.80;99.90
22319;DHT22;11327;52.334;9.506;2023-03-03T04:07:58;0.80;99.90
22319;DHT22;11327;52.334;9.506;2023-03-03T04:11:19;0.90;99.90
22319;DHT22;11327;52.334;9.506;2023-03-03T04:14:39;0.80;99.90
22319;DHT22;11327;52.334;9.506;2023-03-03T04:18:00;0.80;99.90
22319;DHT22;11327;52.334;9.506;2023-03-03T04:21:21;0.80;99.90
22319;DHT22;11327;52.334;9.506;2023-03-03T04:24:42;0.80;99.90
22319;DHT22;11327;52.334;9.506;2023-03-03T04:28:03;0.80;99.90
22319;DHT22;11327;52.334;9.506;2023-03-03T04:31:24;0.80;99.90
22319;DHT22;11327;52.334;9.506;2023-03-03T04:34:45;0.80;99.90
22319;DHT22;11327;52.334;9.506;2023-03-03T04:38:06;0.80;99.90
22319;DHT22;11327;52.334;9.506;2023-03-03T04:41:26;0.80;99.90
22319;DHT22;11327;52.334;9.506;2023-03-03T04:44:47;0.80;99.90
22319;DHT22;11327;52.334;9.506;2023-03-03T04:48:08;0.90;99.90
22319;DHT22;11327;52.334;9.506;2023-03-03T04:51:29;0.90;99.90
22319;DHT22;11327;52.334;9.506;2023-03-03T04:54:49;0.90;99.90
22319;DHT22;11327;52.334;9.506;2023-03-03T04:58:10;0.90;99.90
22319;DHT22;11327;52.334;9.506;2023-03-03T05:01:31;0.90;99.90
22319;DHT22;11327;52.334;9.506;2023-03-03T05:04:51;0.90;99.90
22319;DHT22;11327;52.334;9.506;2023-03-03T05:08:13;0.90;99.90
22319;DHT22;11327;52.334;9.506;2023-03-03T05:11:33;0.90;99.90
22319;DHT22;11327;52.334;9.506;2023-03-03T05:14:54;0.90;99.90
22319;DHT22;11327;52.334;9.506;2023-03-03T05:18:17;1.00;99.90
22319;DHT22;11327;52.334;9.506;2023-03-03T05:21:38;1.10;99.90
22319;DHT22;11327;52.334;9.506;2023-03-03T05:25:01;1.00;99.90
22319;DHT22;11327;52.334;9.506;2023-03-03T05:28:22;1.00;99.90
22319;DHT22;11327;52.334;9.506;2023-03-03T05:31:43;1.00;99.90
22319;DHT22;11327;52.334;9.506;2023-03-03T05:35:04;1.00;99.90
22319;DHT22;11327;52.334;9.506;2023-03-03T05:38:25;1.00;99.90
22319;DHT22;11327;52.334;9.506;2023-03-03T05:41:46;1.00;99.90
22319;DHT22;11327;52.334;9.506;2023-03-03T05:45:07;1.00;99.90
22319;DHT22;11327;52.334;9.506;2023-03-03T05:48:28;1.00;99.90
22319;DHT22;11327;52.334;9.506;2023-03-03T05:52:09;1.00;99.90
22319;DHT22;11327;52.334;9.506;2023-03-03T05:55:29;1.10;99.90
22319;DHT22;11327;52.334;9.506;2023-03-03T05:58:50;1.00;99.90
22319;DHT22;11327;52.334;9.506;2023-03-03T06:02:11;1.00;99.90
22319;DHT22;11327;52.334;9.506;2023-03-03T06:05:31;1.00;99.90
22319;DHT22;11327;52.334;9.506;2023-03-03T06:08:52;1.00;99.90
22319;DHT22;11327;52.334;9.506;2023-03-03T06:12:13;1.00;99.90
22319;DHT22;11327;52.334;9.506;2023-03-03T06:15:34;1.00;99.90
22319;DHT22;11327;52.334;9.506;2023-03-03T06:18:55;1.00;99.90
22319;DHT22;11327;52.334;9.506;2023-03-03T06:22:15;1.00;99.90
22319;DHT22;11327;52.334;9.506;2023-03-03T06:25:37;1.00;99.90
22319;DHT22;11327;52.334;9.506;2023-03-03T06:28:59;1.00;99.90
22319;DHT22;11327;52.334;9.506;2023-03-03T06:32:19;1.00;99.90
22319;DHT22;11327;52.334;9.506;2023-03-03T06:35:40;0.90;99.90
22319;DHT22;11327;52.334;9.506;2023-03-03T06:39:01;0.90;99.90
22319;DHT22;11327;52.334;9.506;2023-03-03T06:42:22;0.90;99.90
22319;DHT22;11327;52.334;9.506;2023-03-03T06:45:44;0.90;99.90
22319;DHT22;11327;52.334;9.506;2023-03-03T06:49:06;1.00;99.90
22319;DHT22;11327;52.334;9.506;2023-03-03T06:52:27;1.00;99.90
22319;DHT22;11327;52.334;9.506;2023-03-03T06:55:47;1.00;99.90
22319;DHT22;11327;52.334;9.506;2023-03-03T06:59:16;1.00;99.90
22319;DHT22;11327;52.334;9.506;2023-03-03T07:02:37;1.00;99.90
22319;DHT22;11327;52.334;9.506;2023-03-03T07:05:59;1.00;99.90
22319;DHT22;11327;52.334;9.506;2023-03-03T07:09:23;1.10;99.90
22319;DHT22;11327;52.334;9.506;2023-03-03T07:12:43;1.10;99.90
22319;DHT22;11327;52.334;9.506;2023-03-03T07:16:08;1.10;99.90
22319;DHT22;11327;52.334;9.506;2023-03-03T07:19:34;1.10;99.90
22319;DHT22;11327;52.334;9.506;2023-03-03T07:22:56;1.10;99.90
22319;DHT22;11327;52.334;9.506;2023-03-03T07:26:19;1.10;99.90
22319;DHT22;11327;52.334;9.506;2023-03-03T07:29:42;1.10;99.90
22319;DHT22;11327;52.334;9.506;2023-03-03T07:33:04;1.10;99.90
22319;DHT22;11327;52.334;9.506;2023-03-03T07:36:30;1.10;99.90
22319;DHT22;11327;52.334;9.506;2023-03-03T07:47:29;1.20;99.90
22319;DHT22;11327;52.334;9.506;2023-03-03T07:50:50;1.30;99.90
22319;DHT22;11327;52.334;9.506;2023-03-03T07:57:49;1.30;99.90
22319;DHT22;11327;52.334;9.506;2023-03-03T08:01:31;1.30;99.90
22319;DHT22;11327;52.334;9.506;2023-03-03T08:04:51;1.30;99.90
22319;DHT22;11327;52.334;9.506;2023-03-03T08:15:21;1.40;99.90
22319;DHT22;11327;52.334;9.506;2023-03-03T08:18:51;1.40;99.90
22319;DHT22;11327;52.334;9.506;2023-03-03T08:22:15;1.50;99.90
22319;DHT22;11327;52.334;9.506;2023-03-03T08:25:37;1.40;99.90
22319;DHT22;11327;52.334;9.506;2023-03-03T08:28:58;1.50;99.90
22319;DHT22;11327;52.334;9.506;2023-03-03T08:32:18;1.50;99.90
22319;DHT22;11327;52.334;9.506;2023-03-03T08:35:39;1.50;99.90
22319;DHT22;11327;52.334;9.506;2023-03-03T08:39:01;1.50;99.90
22319;DHT22;11327;52.334;9.506;2023-03-03T08:42:22;1.60;99.90
22319;DHT22;11327;52.334;9.506;2023-03-03T08:45:44;1.60;99.90
22319;DHT22;11327;52.334;9.506;2023-03-03T08:49:05;1.60;99.90
22319;DHT22;11327;52.334;9.506;2023-03-03T08:52:26;1.60;99.90
22319;DHT22;11327;52.334;9.506;2023-03-03T08:55:47;1.60;99.90
22319;DHT22;11327;52.334;9.506;2023-03-03T08:59:07;1.70;99.90
22319;DHT22;11327;52.334;9.506;2023-03-03T09:02:28;1.70;99.90
22319;DHT22;11327;52.334;9.506;2023-03-03T09:05:49;1.80;99.90
22319;DHT22;11327;52.334;9.506;2023-03-03T09:09:10;1.70;99.90
22319;DHT22;11327;52.334;9.506;2023-03-03T09:12:47;1.80;99.90
22319;DHT22;11327;52.334;9.506;2023-03-03T09:16:13;1.90;99.90
22319;DHT22;11327;52.334;9.506;2023-03-03T09:19:35;1.90;99.90
22319;DHT22;11327;52.334;9.506;2023-03-03T09:22:57;1.90;99.90
22319;DHT22;11327;52.334;9.506;2023-03-03T09:29:47;2.00;99.90
22319;DHT22;11327;52.334;9.506;2023-03-03T09:33:16;2.00;99.90
22319;DHT22;11327;52.334;9.506;2023-03-03T09:36:37;2.10;99.90
22319;DHT22;11327;52.334;9.506;2023-03-03T09:39:58;2.10;99.90
22319;DHT22;11327;52.334;9.506;2023-03-03T09:43:27;2.10;99.90
22319;DHT22;11327;52.334;9.506;2023-03-03T09:57:37;2.20;99.90
22319;DHT22;11327;52.334;9.506;2023-03-03T10:02:05;2.20;99.90
22319;DHT22;11327;52.334;9.506;2023-03-03T10:12:11;2.20;99.90
22319;DHT22;11327;52.334;9.506;2023-03-03T10:19:40;2.20;99.90
22319;DHT22;11327;52.334;9.506;2023-03-03T10:23:23;2.30;99.90
22319;DHT22;11327;52.334;9.506;2023-03-03T10:26:50;2.10;99.90
22319;DHT22;11327;52.334;9.506;2023-03-03T10:33:52;2.20;99.90
22319;DHT22;11327;52.334;9.506;2023-03-03T10:48:36;2.60;99.90
22319;DHT22;11327;52.334;9.506;2023-03-03T10:55:34;2.70;99.90
22319;DHT22;11327;52.334;9.506;2023-03-03T10:59:19;2.70;99.90
22319;DHT22;11327;52.334;9.506;2023-03-03T11:06:17;2.70;99.90
22319;DHT22;11327;52.334;9.506;2023-03-03T11:16:59;2.80;99.90
22319;DHT22;11327;52.334;9.506;2023-03-03T11:20:37;2.80;99.90
22319;DHT22;11327;52.334;9.506;2023-03-03T11:24:20;2.90;99.90
22319;DHT22;11327;52.334;9.506;2023-03-03T11:32:00;3.10;99.90
22319;DHT22;11327;52.334;9.506;2023-03-03T11:35:28;3.20;99.90
22319;DHT22;11327;52.334;9.506;2023-03-03T11:39:04;3.20;99.90
22319;DHT22;11327;52.334;9.506;2023-03-03T11:46:21;3.20;99.90
22319;DHT22;11327;52.334;9.506;2023-03-03T11:56:48;3.30;99.90
22319;DHT22;11327;52.334;9.506;2023-03-03T12:00:28;3.50;99.90
22319;DHT22;11327;52.334;9.506;2023-03-03T12:18:45;3.60;99.90
22319;DHT22;11327;52.334;9.506;2023-03-03T12:25:43;3.60;99.90
22319;DHT22;11327;52.334;9.506;2023-03-03T12:40:25;3.80;99.90
22319;DHT22;11327;52.334;9.506;2023-03-03T12:47:30;3.90;99.90
22319;DHT22;11327;52.334;9.506;2023-03-03T12:51:08;3.90;99.90
22319;DHT22;11327;52.334;9.506;2023-03-03T12:54:34;3.90;99.90
22319;DHT22;11327;52.334;9.506;2023-03-03T12:58:11;3.90;99.90
22319;DHT22;11327;52.334;9.506;2023-03-03T13:12:57;4.20;99.90
22319;DHT22;11327;52.334;9.506;2023-03-03T13:16:20;4.20;99.90
22319;DHT22;11327;52.334;9.506;2023-03-03T13:19:59;4.30;99.90
22319;DHT22;11327;52.334;9.506;2023-03-03T13:23:38;4.30;99.90
22319;DHT22;11327;52.334;9.506;2023-03-03T13:30:34;4.30;99.90
22319;DHT22;11327;52.334;9.506;2023-03-03T13:33:58;4.30;99.90
22319;DHT22;11327;52.334;9.506;2023-03-03T13:37:28;4.30;99.90
22319;DHT22;11327;52.334;9.506;2023-03-03T13:44:23;4.40;99.90
22319;DHT22;11327;52.334;9.506;2023-03-03T13:51:48;4.50;99.90
22319;DHT22;11327;52.334;9.506;2023-03-03T14:06:04;4.60;99.90
22319;DHT22;11327;52.334;9.506;2023-03-03T14:13:12;4.50;99.90
22319;DHT22;11327;52.334;9.506;2023-03-03T14:16:46;4.50;99.90
22319;DHT22;11327;52.334;9.506;2023-03-03T14:27:23;4.50;99.90
22319;DHT22;11327;52.334;9.506;2023-03-03T14:30:44;4.50;99.90
22319;DHT22;11327;52.334;9.506;2023-03-03T14:37:44;4.40;99.90
22319;DHT22;11327;52.334;9.506;2023-03-03T14:41:17;4.40;99.90
22319;DHT22;11327;52.334;9.506;2023-03-03T14:44:53;4.40;99.90
22319;DHT22;11327;52.334;9.506;2023-03-03T14:48:23;4.40;99.90
22319;DHT22;11327;52.334;9.506;2023-03-03T14:51:48;4.50;99.90
22319;DHT22;11327;52.334;9.506;2023-03-03T14:55:29;4.30;99.90
22319;DHT22;11327;52.334;9.506;2023-03-03T14:58:52;4.30;99.90
22319;DHT22;11327;52.334;9.506;2023-03-03T15:05:48;4.30;99.90
22319;DHT22;11327;52.334;9.506;2023-03-03T15:13:06;4.20;99.90
22319;DHT22;11327;52.334;9.506;2023-03-03T15:16:22;4.30;99.90
22319;DHT22;11327;52.334;9.506;2023-03-03T15:19:50;4.40;99.90
22319;DHT22;11327;52.334;9.506;2023-03-03T15:26:58;4.50;99.90
22319;DHT22;11327;52.334;9.506;2023-03-03T15:30:29;4.60;99.90
22319;DHT22;11327;52.334;9.506;2023-03-03T15:34:04;4.70;99.90
22319;DHT22;11327;52.334;9.506;2023-03-03T15:52:08;4.90;99.90
22319;DHT22;11327;52.334;9.506;2023-03-03T16:13:40;4.70;99.90
22319;DHT22;11327;52.334;9.506;2023-03-03T16:20:44;4.40;99.90
22319;DHT22;11327;52.334;9.506;2023-03-03T16:24:21;4.40;99.90
22319;DHT22;11327;52.334;9.506;2023-03-03T16:27:42;4.30;99.90
22319;DHT22;11327;52.334;9.506;2023-03-03T16:31:06;4.20;99.90
22319;DHT22;11327;52.334;9.506;2023-03-03T16:38:18;4.00;99.90
22319;DHT22;11327;52.334;9.506;2023-03-03T16:45:17;3.80;99.90
22319;DHT22;11327;52.334;9.506;2023-03-03T16:48:52;3.80;99.90
22319;DHT22;11327;52.334;9.506;2023-03-03T16:52:16;3.70;99.90
22319;DHT22;11327;52.334;9.506;2023-03-03T17:03:17;3.50;99.90
22319;DHT22;11327;52.334;9.506;2023-03-03T17:06:41;3.40;99.90
22319;DHT22;11327;52.334;9.506;2023-03-03T17:10:19;3.40;99.90
22319;DHT22;11327;52.334;9.506;2023-03-03T17:21:02;3.20;99.90
22319;DHT22;11327;52.334;9.506;2023-03-03T17:25:02;3.10;99.90
22319;DHT22;11327;52.334;9.506;2023-03-03T17:28:46;3.10;99.90
22319;DHT22;11327;52.334;9.506;2023-03-03T17:35:56;3.10;99.90
22319;DHT22;11327;52.334;9.506;2023-03-03T17:39:22;3.10;99.90
22319;DHT22;11327;52.334;9.506;2023-03-03T17:46:44;3.10;99.90
22319;DHT22;11327;52.334;9.506;2023-03-03T17:53:44;3.10;99.90
22319;DHT22;11327;52.334;9.506;2023-03-03T17:57:16;3.10;99.90
22319;DHT22;11327;52.334;9.506;2023-03-03T18:04:17;3.10;99.90
22319;DHT22;11327;52.334;9.506;2023-03-03T18:11:21;3.20;99.90
22319;DHT22;11327;52.334;9.506;2023-03-03T18:18:29;3.30;99.90
22319;DHT22;11327;52.334;9.506;2023-03-03T18:22:06;3.40;99.90
22319;DHT22;11327;52.334;9.506;2023-03-03T18:25:52;3.40;99.90
22319;DHT22;11327;52.334;9.506;2023-03-03T18:43:38;3.60;99.90
22319;DHT22;11327;52.334;9.506;2023-03-03T18:46:59;3.60;99.90
22319;DHT22;11327;52.334;9.506;2023-03-03T18:50:43;3.60;99.90
22319;DHT22;11327;52.334;9.506;2023-03-03T18:57:46;3.60;99.90
22319;DHT22;11327;52.334;9.506;2023-03-03T19:04:34;3.70;99.90
22319;DHT22;11327;52.334;9.506;2023-03-03T19:07:58;3.70;99.90
22319;DHT22;11327;52.334;9.506;2023-03-03T19:14:56;3.80;99.90
22319;DHT22;11327;52.334;9.506;2023-03-03T19:18:23;3.80;99.90
22319;DHT22;11327;52.334;9.506;2023-03-03T19:21:51;3.90;99.90
22319;DHT22;11327;52.334;9.506;2023-03-03T19:25:28;4.00;99.90
22319;DHT22;11327;52.334;9.506;2023-03-03T19:29:07;4.10;99.90
22319;DHT22;11327;52.334;9.506;2023-03-03T19:32:47;4.10;99.90
22319;DHT22;11327;52.334;9.506;2023-03-03T19:36:33;4.10;99.90
22319;DHT22;11327;52.334;9.506;2023-03-03T19:47:17;4.20;99.90
22319;DHT22;11327;52.334;9.506;2023-03-03T19:54:42;4.30;99.90
22319;DHT22;11327;52.334;9.506;2023-03-03T19:58:28;4.30;99.90
22319;DHT22;11327;52.334;9.506;2023-03-03T20:13:41;4.50;99.90
22319;DHT22;11327;52.334;9.506;2023-03-03T20:16:38;4.50;99.90
22319;DHT22;11327;52.334;9.506;2023-03-03T20:27:19;4.60;99.90
22319;DHT22;11327;52.334;9.506;2023-03-03T20:59:41;4.50;99.90
22319;DHT22;11327;52.334;9.506;2023-03-03T21:03:17;4.50;99.90
22319;DHT22;11327;52.334;9.506;2023-03-03T21:06:38;4.60;99.90
22319;DHT22;11327;52.334;9.506;2023-03-03T21:10:15;4.50;99.90
22319;DHT22;11327;52.334;9.506;2023-03-03T21:13:41;4.50;99.90
22319;DHT22;11327;52.334;9.506;2023-03-03T21:17:24;4.40;99.90
22319;DHT22;11327;52.334;9.506;2023-03-03T21:20:45;4.50;99.90
22319;DHT22;11327;52.334;9.506;2023-03-03T21:24:08;4.40;99.90
22319;DHT22;11327;52.334;9.506;2023-03-03T21:27:33;4.40;99.90
22319;DHT22;11327;52.334;9.506;2023-03-03T21:31:15;4.40;99.90
22319;DHT22;11327;52.334;9.506;2023-03-03T21:34:41;4.50;99.90
22319;DHT22;11327;52.334;9.506;2023-03-03T21:38:01;4.40;99.90
22319;DHT22;11327;52.334;9.506;2023-03-03T21:41:23;4.40;99.90
22319;DHT22;11327;52.334;9.506;2023-03-03T21:44:46;4.30;99.90
22319;DHT22;11327;52.334;9.506;2023-03-03T21:48:08;4.40;99.90
22319;DHT22;11327;52.334;9.506;2023-03-03T21:51:29;4.30;99.90
22319;DHT22;11327;52.334;9.506;2023-03-03T21:54:50;4.40;99.90
22319;DHT22;11327;52.334;9.506;2023-03-03T21:58:11;4.40;99.90
22319;DHT22;11327;52.334;9.506;2023-03-03T22:01:32;4.30;99.90
22319;DHT22;11327;52.334;9.506;2023-03-03T22:04:52;4.30;99.90
22319;DHT22;11327;52.334;9.506;2023-03-03T22:08:14;4.40;99.90
22319;DHT22;11327;52.334;9.506;2023-03-03T22:11:37;4.40;99.90
22319;DHT22;11327;52.334;9.506;2023-03-03T22:14:59;4.30;99.90
22319;DHT22;11327;52.334;9.506;2023-03-03T22:18:20;4.40;99.90
22319;DHT22;11327;52.334;9.506;2023-03-03T22:21:41;4.40;99.90
22319;DHT22;11327;52.334;9.506;2023-03-03T22:25:01;4.40;99.90
22319;DHT22;11327;52.334;9.506;2023-03-03T22:28:22;4.40;99.90
22319;DHT22;11327;52.334;9.506;2023-03-03T22:31:43;4.50;99.90
22319;DHT22;11327;52.334;9.506;2023-03-03T22:35:05;4.60;99.90
22319;DHT22;11327;52.334;9.506;2023-03-03T22:38:26;4.40;99.90
22319;DHT22;11327;52.334;9.506;2023-03-03T22:41:46;4.50;99.90
22319;DHT22;11327;52.334;9.506;2023-03-03T22:45:08;4.40;99.90
22319;DHT22;11327;52.334;9.506;2023-03-03T22:48:30;4.40;99.90
22319;DHT22;11327;52.334;9.506;2023-03-03T22:51:51;4.30;99.90
22319;DHT22;11327;52.334;9.506;2023-03-03T22:55:11;4.30;99.90
22319;DHT22;11327;52.334;9.506;2023-03-03T22:58:32;4.30;99.90
22319;DHT22;11327;52.334;9.506;2023-03-03T23:01:53;4.40;99.90
22319;DHT22;11327;52.334;9.506;2023-03-03T23:05:13;4.30;99.90
22319;DHT22;11327;52.334;9.506;2023-03-03T23:08:34;4.30;99.90
22319;DHT22;11327;52.334;9.506;2023-03-03T23:11:55;4.20;99.90
22319;DHT22;11327;52.334;9.506;2023-03-03T23:15:16;4.20;99.90
22319;DHT22;11327;52.334;9.506;2023-03-03T23:18:36;4.20;99.90
22319;DHT22;11327;52.334;9.506;2023-03-03T23:21:57;4.20;99.90
22319;DHT22;11327;52.334;9.506;2023-03-03T23:25:18;4.20;99.90
22319;DHT22;11327;52.334;9.506;2023-03-03T23:28:39;4.30;99.90
22319;DHT22;11327;52.334;9.506;2023-03-03T23:32:00;4.30;99.90
22319;DHT22;11327;52.334;9.506;2023-03-03T23:35:21;4.20;99.90
22319;DHT22;11327;52.334;9.506;2023-03-03T23:38:42;4.20;99.90
22319;DHT22;11327;52.334;9.506;2023-03-03T23:42:03;4.30;99.90
22319;DHT22;11327;52.334;9.506;2023-03-03T23:45:24;4.30;99.90
22319;DHT22;11327;52.334;9.506;2023-03-03T23:48:45;4.30;99.90
22319;DHT22;11327;52.334;9.506;2023-03-03T23:52:05;4.30;99.90
22319;DHT22;11327;52.334;9.506;2023-03-03T23:55:26;4.30;99.90
22319;DHT22;11327;52.334;9.506;2023-03-03T23:58:47;4.20;99.90
